Time;durP1;ratioP1;P1;durP2;ratioP2;P2;SDS_P1;SDS_P2;PMS_P1;PMS_P2;Temp;Humidity;BMP_temperature;BMP_pressure;BME280_temperature;BME280_humidity;BME280_pressure;Samples;Min_cycle;Max_cycle;Signal;HPM_P1;HPM_P2
2021/07/13 00:00:16;;;;;;;49.38;41.63;;;19.80;95.20;;;;;;5016866;28;20069;-52
2021/07/13 00:02:41;;;;;;;54.88;42.80;;;19.80;95.30;;;;;;5020314;28;20092;-53
2021/07/13 00:05:11;;;;;;;52.20;41.88;;;19.80;95.30;;;;;;5010672;28;20046;-53
2021/07/13 00:07:38;;;;;;;51.25;41.20;;;19.70;95.40;;;;;;5009971;28;20052;-49
2021/07/13 00:10:06;;;;;;;57.15;42.05;;;19.70;95.40;;;;;;5011976;28;20038;-53
2021/07/13 00:12:32;;;;;;;54.13;42.22;;;19.70;95.40;;;;;;5013714;28;20057;-53
2021/07/13 00:14:58;;;;;;;54.30;41.47;;;19.70;95.40;;;;;;5011018;28;20060;-50
2021/07/13 00:17:24;;;;;;;53.35;40.80;;;19.70;95.40;;;;;;5010117;28;20053;-53
2021/07/13 00:19:51;;;;;;;51.08;40.15;;;19.60;95.40;;;;;;5011780;28;20088;-53
2021/07/13 00:22:17;;;;;;;50.53;41.35;;;19.60;95.50;;;;;;5016948;28;20078;-53
2021/07/13 00:24:43;;;;;;;56.35;43.03;;;19.60;95.50;;;;;;5010912;28;20041;-53
2021/07/13 00:27:09;;;;;;;50.72;41.67;;;19.60;95.50;;;;;;5011990;28;20042;-54
2021/07/13 00:29:35;;;;;;;53.83;41.03;;;19.60;95.50;;;;;;5011430;28;20033;-53
2021/07/13 00:32:00;;;;;;;62.15;45.25;;;19.60;95.50;;;;;;5008806;28;20042;-55
2021/07/13 00:34:26;;;;;;;63.75;45.13;;;19.50;95.60;;;;;;5009115;28;20508;-54
2021/07/13 00:36:52;;;;;;;58.10;43.60;;;19.50;95.60;;;;;;5001874;28;20045;-55
2021/07/13 00:39:18;;;;;;;59.92;45.53;;;19.50;95.60;;;;;;5011409;28;20121;-54
2021/07/13 00:41:44;;;;;;;59.22;46.35;;;19.50;95.60;;;;;;5012659;28;20049;-53
2021/07/13 00:44:09;;;;;;;61.63;48.03;;;19.50;95.60;;;;;;5019197;28;20557;-54
2021/07/13 00:46:46;;;;;;;68.85;50.15;;;19.40;95.70;;;;;;5015281;28;20073;-53
2021/07/13 00:49:15;;;;;;;75.78;51.33;;;19.40;95.80;;;;;;5017806;28;20045;-50
2021/07/13 00:51:42;;;;;;;75.57;52.42;;;19.40;95.70;;;;;;5012095;28;20391;-52
2021/07/13 00:54:10;;;;;;;75.97;54.92;;;19.40;95.70;;;;;;5009748;28;20038;-53
2021/07/13 00:56:38;;;;;;;75.72;54.28;;;19.40;95.70;;;;;;5008559;28;20116;-51
2021/07/13 00:59:04;;;;;;;86.50;55.20;;;19.30;95.80;;;;;;5009775;28;20518;-52
2021/07/13 01:01:32;;;;;;;85.53;57.63;;;19.30;95.90;;;;;;5009862;28;20154;-53
2021/07/13 01:04:02;;;;;;;85.53;56.58;;;19.20;96.00;;;;;;5008019;28;20108;-50
2021/07/13 01:07:04;;;;;;;82.80;55.15;;;19.20;96.00;;;;;;5009239;28;20073;-52
2021/07/13 01:09:39;;;;;;;;;;;19.20;96.10;;;;;;5009381;28;20417;-52
2021/07/13 01:12:49;;;;;;;82.78;56.25;;;19.10;96.20;;;;;;5008884;28;19963;-53
2021/07/13 01:15:18;;;;;;;93.38;59.58;;;19.10;96.10;;;;;;5011942;28;20041;-54
2021/07/13 01:18:20;;;;;;;88.70;58.03;;;19.10;96.00;;;;;;5006354;28;20042;-53
2021/07/13 01:21:21;;;;;;;86.90;60.40;;;19.20;96.10;;;;;;5017295;28;20056;-54
2021/07/13 01:24:20;;;;;;;97.65;61.05;;;19.10;96.20;;;;;;5015708;28;20513;-53
2021/07/13 01:27:02;;;;;;;92.97;60.25;;;19.20;96.10;;;;;;5014209;28;20100;-53
2021/07/13 01:29:30;;;;;;;100.85;62.00;;;19.20;96.00;;;;;;5031017;28;20045;-54
2021/07/13 01:31:57;;;;;;;100.00;62.10;;;19.10;96.20;;;;;;5024139;28;20116;-53
2021/07/13 01:34:36;;;;;;;100.43;63.53;;;19.10;96.10;;;;;;5030067;28;20100;-55
2021/07/13 01:37:11;;;;;;;101.32;63.13;;;19.10;96.30;;;;;;5022239;28;20050;-53
2021/07/13 01:39:39;;;;;;;100.10;63.30;;;19.10;96.30;;;;;;5020920;28;20136;-54
2021/07/13 01:42:09;;;;;;;110.50;67.03;;;19.10;96.30;;;;;;5011856;28;20174;-53
2021/07/13 01:44:36;;;;;;;98.45;62.70;;;19.00;96.30;;;;;;5011710;28;20069;-50
2021/07/13 01:47:03;;;;;;;99.28;63.05;;;19.10;96.30;;;;;;5014103;28;20037;-54
2021/07/13 01:49:30;;;;;;;104.13;64.20;;;19.00;96.30;;;;;;5014028;28;20050;-54
2021/07/13 01:51:57;;;;;;;103.80;63.53;;;19.10;96.40;;;;;;5014313;28;20421;-53
2021/07/13 01:54:25;;;;;;;105.57;66.20;;;19.00;96.30;;;;;;5013522;28;20046;-53
2021/07/13 01:56:58;;;;;;;107.53;66.80;;;19.00;96.40;;;;;;5014393;28;20041;-56
2021/07/13 01:59:25;;;;;;;106.65;65.68;;;19.10;96.40;;;;;;5012254;28;20124;-54
2021/07/13 02:01:56;;;;;;;100.63;63.65;;;19.00;96.40;;;;;;5012234;28;20057;-55
2021/07/13 02:04:29;;;;;;;109.82;64.65;;;19.00;96.40;;;;;;5013402;28;20395;-55
2021/07/13 02:06:59;;;;;;;105.90;63.67;;;19.00;96.50;;;;;;5014123;28;20477;-55
2021/07/13 02:09:24;;;;;;;113.95;68.18;;;19.00;96.50;;;;;;5012607;28;20034;-55
2021/07/13 02:11:52;;;;;;;115.72;66.50;;;19.00;96.50;;;;;;5012679;28;20430;-53
2021/07/13 02:14:17;;;;;;;117.32;67.55;;;19.00;96.60;;;;;;5013005;28;20056;-54
2021/07/13 02:16:48;;;;;;;128.55;69.68;;;19.00;96.70;;;;;;5014378;28;20054;-55
2021/07/13 02:19:14;;;;;;;117.20;65.93;;;19.00;96.60;;;;;;5012790;28;20050;-56
2021/07/13 02:21:41;;;;;;;113.60;66.78;;;19.10;96.80;;;;;;5014101;28;20104;-54
2021/07/13 02:24:07;;;;;;;115.07;66.43;;;19.10;96.30;;;;;;5012671;28;20050;-53
2021/07/13 02:27:10;;;;;;;124.35;68.78;;;19.10;96.70;;;;;;4978649;28;20072;-55
2021/07/13 02:29:46;;;;;;;112.45;62.45;;;19.10;96.50;;;;;;5010547;28;20062;-53
2021/07/13 02:32:31;;;;;;;120.78;65.38;;;19.00;96.70;;;;;;5002191;28;20482;-54
2021/07/13 02:34:59;;;;;;;114.50;64.28;;;19.10;96.70;;;;;;5024946;28;20034;-53
2021/07/13 02:37:27;;;;;;;113.18;63.72;;;19.00;96.70;;;;;;5013307;28;20367;-53
2021/07/13 02:39:54;;;;;;;112.85;63.35;;;18.90;96.80;;;;;;5010393;28;20042;-53
2021/07/13 02:42:21;;;;;;;131.30;68.85;;;18.90;96.90;;;;;;5002215;28;20038;-53
2021/07/13 02:44:48;;;;;;;124.45;66.55;;;18.90;97.00;;;;;;5000485;28;20048;-50
2021/07/13 02:47:15;;;;;;;118.75;65.70;;;19.00;96.90;;;;;;4995970;28;20463;-51
2021/07/13 02:49:47;;;;;;;115.78;65.43;;;19.00;97.00;;;;;;4997749;28;20081;-54
2021/07/13 02:52:24;;;;;;;121.30;63.35;;;19.00;97.00;;;;;;5002553;28;20042;-54
2021/07/13 02:55:04;;;;;;;107.30;59.58;;;19.00;97.00;;;;;;5010346;28;20049;-53
2021/07/13 02:57:34;;;;;;;126.40;67.30;;;18.90;97.30;;;;;;4998442;28;20074;-54
2021/07/13 03:00:04;;;;;;;123.63;63.65;;;19.00;97.20;;;;;;5008220;28;20525;-53
2021/07/13 03:02:30;;;;;;;120.28;65.35;;;18.80;97.40;;;;;;4995590;28;20443;-53
2021/07/13 03:04:57;;;;;;;119.95;64.28;;;18.80;97.40;;;;;;4994726;28;20093;-53
2021/07/13 03:07:24;;;;;;;116.68;65.93;;;18.70;97.50;;;;;;4999309;28;20037;-54
2021/07/13 03:09:50;;;;;;;127.68;65.75;;;18.70;97.70;;;;;;5011033;28;20050;-53
2021/07/13 03:12:17;;;;;;;117.28;64.18;;;18.80;97.90;;;;;;5010884;28;20100;-52
2021/07/13 03:14:44;;;;;;;124.93;63.50;;;18.80;97.60;;;;;;5000229;28;20042;-53
2021/07/13 03:17:11;;;;;;;120.97;63.50;;;18.80;97.60;;;;;;5012020;28;20045;-54
2021/07/13 03:19:37;;;;;;;113.25;60.72;;;18.80;97.80;;;;;;5026598;28;20099;-52
2021/07/13 03:22:08;;;;;;;111.85;62.72;;;18.80;98.00;;;;;;5025104;28;20038;-54
2021/07/13 03:24:38;;;;;;;118.35;63.33;;;18.90;97.30;;;;;;5012767;28;20073;-52
2021/07/13 03:27:05;;;;;;;120.65;64.10;;;18.90;97.50;;;;;;5011858;28;20046;-54
2021/07/13 03:29:31;;;;;;;121.35;63.80;;;19.00;97.30;;;;;;5015134;28;20394;-53
2021/07/13 03:31:58;;;;;;;124.43;62.92;;;18.90;97.50;;;;;;5022216;28;20045;-55
2021/07/13 03:34:26;;;;;;;116.22;63.45;;;18.80;97.90;;;;;;5011398;28;20454;-55
2021/07/13 03:36:56;;;;;;;120.75;63.88;;;18.80;97.70;;;;;;5000844;28;20045;-54
2021/07/13 03:39:25;;;;;;;124.63;65.77;;;18.80;97.40;;;;;;5024270;28;20423;-55
2021/07/13 03:41:51;;;;;;;116.43;65.38;;;18.70;97.80;;;;;;5012245;28;20045;-54
2021/07/13 03:44:17;;;;;;;118.07;64.22;;;18.70;97.70;;;;;;5010257;28;20046;-55
2021/07/13 03:46:43;;;;;;;112.75;64.57;;;18.70;97.80;;;;;;5011144;28;20033;-55
2021/07/13 03:49:09;;;;;;;116.90;64.28;;;18.70;97.90;;;;;;5011034;28;20044;-53
2021/07/13 03:51:41;;;;;;;112.38;64.38;;;18.60;98.00;;;;;;5010595;28;20100;-54
2021/07/13 03:54:07;;;;;;;112.30;62.20;;;18.60;98.00;;;;;;5020440;28;20068;-55
2021/07/13 03:56:33;;;;;;;101.88;59.78;;;18.60;98.00;;;;;;5026891;28;20161;-55
2021/07/13 03:59:00;;;;;;;105.25;61.35;;;18.70;98.00;;;;;;5017902;28;20053;-53
2021/07/13 04:01:26;;;;;;;99.05;58.95;;;18.70;98.00;;;;;;5012888;28;20076;-50
2021/07/13 04:03:52;;;;;;;97.63;58.83;;;18.70;97.90;;;;;;4998821;28;20042;-53
2021/07/13 04:06:18;;;;;;;92.55;56.28;;;18.70;97.90;;;;;;5010940;28;20042;-52
2021/07/13 04:08:44;;;;;;;92.57;57.33;;;18.70;97.80;;;;;;5018632;28;20060;-53
2021/07/13 04:11:10;;;;;;;93.15;57.03;;;18.70;97.70;;;;;;5011539;28;20038;-53
2021/07/13 04:13:36;;;;;;;92.28;56.47;;;18.70;97.80;;;;;;5010171;28;20184;-52
2021/07/13 04:16:02;;;;;;;86.10;54.42;;;18.80;97.40;;;;;;5010820;28;20061;-50
2021/07/13 04:18:29;;;;;;;91.40;55.88;;;18.90;97.30;;;;;;5010290;28;20042;-51
2021/07/13 04:20:55;;;;;;;83.50;52.70;;;19.00;97.10;;;;;;5011654;28;20061;-54
2021/07/13 04:23:22;;;;;;;92.75;57.70;;;18.90;97.10;;;;;;5028657;28;20132;-50
2021/07/13 04:25:48;;;;;;;85.32;54.13;;;18.80;97.40;;;;;;5011774;28;20426;-55
2021/07/13 04:28:14;;;;;;;89.28;54.25;;;18.80;97.40;;;;;;5030267;28;20124;-55
2021/07/13 04:30:40;;;;;;;90.50;54.63;;;18.90;97.30;;;;;;5018453;28;20048;-53
2021/07/13 04:33:06;;;;;;;89.82;54.80;;;18.80;97.30;;;;;;5024723;28;20046;-52
2021/07/13 04:35:32;;;;;;;81.63;51.22;;;18.80;97.40;;;;;;5010293;28;20044;-53
2021/07/13 04:37:58;;;;;;;77.80;51.80;;;18.90;97.40;;;;;;5009253;28;20048;-53
2021/07/13 04:40:25;;;;;;;82.13;52.72;;;18.90;97.10;;;;;;5004746;28;20050;-53
2021/07/13 04:42:52;;;;;;;81.95;52.10;;;18.90;97.30;;;;;;5005194;28;20442;-51
2021/07/13 04:45:18;;;;;;;78.53;50.65;;;19.00;96.80;;;;;;5009398;28;20514;-51
2021/07/13 04:47:44;;;;;;;79.68;51.08;;;19.00;97.00;;;;;;5024655;28;20128;-52
2021/07/13 04:50:10;;;;;;;76.50;49.58;;;18.90;97.10;;;;;;5013062;28;20077;-53
2021/07/13 04:52:37;;;;;;;72.20;49.85;;;18.90;97.00;;;;;;5015843;28;20498;-53
2021/07/13 04:55:04;;;;;;;70.88;48.63;;;18.90;97.20;;;;;;5012458;28;20537;-52
2021/07/13 04:57:30;;;;;;;79.38;50.75;;;19.00;96.90;;;;;;5014323;28;20038;-55
2021/07/13 04:59:56;;;;;;;74.45;49.53;;;19.00;96.90;;;;;;5006709;28;20133;-51
2021/07/13 05:02:22;;;;;;;73.53;47.58;;;19.00;97.00;;;;;;5011532;28;20088;-54
2021/07/13 05:04:48;;;;;;;71.18;48.08;;;19.10;96.90;;;;;;5013861;28;20050;-56
2021/07/13 05:07:14;;;;;;;73.00;47.65;;;19.00;97.00;;;;;;5014113;28;20050;-55
2021/07/13 05:09:41;;;;;;;68.82;46.22;;;19.00;97.00;;;;;;5014625;28;20521;-54
2021/07/13 05:12:07;;;;;;;72.05;45.88;;;19.00;97.10;;;;;;5014739;28;20384;-55
2021/07/13 05:14:35;;;;;;;70.97;47.65;;;19.10;97.00;;;;;;5010553;28;20410;-55
2021/07/13 05:17:03;;;;;;;70.57;46.28;;;19.10;96.80;;;;;;5009698;28;20041;-55
2021/07/13 05:19:32;;;;;;;65.80;46.95;;;19.00;96.90;;;;;;5007351;28;20120;-53
2021/07/13 05:22:01;;;;;;;68.38;47.35;;;19.00;97.00;;;;;;5023528;28;20046;-56
2021/07/13 05:24:27;;;;;;;73.05;46.95;;;19.10;97.00;;;;;;4987731;28;20046;-56
2021/07/13 05:26:53;;;;;;;68.72;46.60;;;19.10;96.90;;;;;;5011603;28;20041;-56
2021/07/13 05:29:19;;;;;;;66.18;44.40;;;19.10;96.90;;;;;;5011054;28;20350;-55
2021/07/13 05:31:46;;;;;;;67.30;45.55;;;19.20;96.70;;;;;;5005982;28;20041;-55
2021/07/13 05:34:14;;;;;;;65.53;43.22;;;19.10;96.80;;;;;;5009516;28;20052;-55
2021/07/13 05:36:39;;;;;;;65.70;44.08;;;19.20;96.60;;;;;;5005131;28;20069;-56
2021/07/13 05:39:07;;;;;;;69.28;45.58;;;19.10;96.70;;;;;;5009034;28;20122;-56
2021/07/13 05:41:34;;;;;;;68.28;44.83;;;19.10;96.80;;;;;;5009993;28;20052;-55
2021/07/13 05:44:06;;;;;;;69.13;44.80;;;19.10;96.90;;;;;;4996375;28;20052;-56
2021/07/13 05:46:32;;;;;;;65.15;43.30;;;19.20;96.90;;;;;;5005425;28;20038;-50
2021/07/13 05:48:58;;;;;;;70.00;45.20;;;19.20;96.90;;;;;;5000509;28;20042;-53
2021/07/13 05:51:24;;;;;;;66.13;43.25;;;19.20;96.90;;;;;;4998688;28;20113;-53
2021/07/13 05:53:50;;;;;;;62.75;41.38;;;19.20;96.90;;;;;;5009140;28;20054;-50
2021/07/13 05:56:16;;;;;;;64.97;43.65;;;19.20;96.90;;;;;;5012253;28;20084;-54
2021/07/13 05:58:42;;;;;;;60.25;41.72;;;19.20;96.90;;;;;;5012189;28;20422;-53
2021/07/13 06:01:08;;;;;;;62.10;40.45;;;19.20;96.80;;;;;;5005526;28;20470;-55
2021/07/13 06:03:34;;;;;;;62.83;43.35;;;19.20;96.80;;;;;;5010438;28;20415;-54
2021/07/13 06:06:00;;;;;;;67.82;44.45;;;19.20;96.80;;;;;;5006665;28;20132;-53
2021/07/13 06:08:26;;;;;;;64.70;42.83;;;19.30;96.80;;;;;;4981760;28;20501;-53
2021/07/13 06:10:55;;;;;;;61.28;40.97;;;19.30;96.80;;;;;;4992635;28;20467;-51
2021/07/13 06:13:20;;;;;;;62.47;41.47;;;19.30;96.80;;;;;;5008030;28;20123;-53
2021/07/13 06:15:46;;;;;;;62.47;41.38;;;19.30;96.70;;;;;;5012312;28;20085;-53
2021/07/13 06:18:16;;;;;;;63.20;41.97;;;19.30;96.70;;;;;;5010920;28;20038;-53
2021/07/13 06:20:41;;;;;;;58.72;41.38;;;19.30;96.70;;;;;;5014916;28;20091;-53
2021/07/13 06:23:07;;;;;;;59.88;40.70;;;19.30;96.60;;;;;;5016316;28;20045;-54
2021/07/13 06:25:33;;;;;;;55.83;39.90;;;19.30;96.60;;;;;;5012514;28;20539;-52
2021/07/13 06:27:59;;;;;;;59.85;40.85;;;19.30;96.60;;;;;;5015346;28;20457;-51
2021/07/13 06:30:25;;;;;;;59.60;38.78;;;19.30;96.60;;;;;;5010488;28;20510;-51
2021/07/13 06:32:50;;;;;;;60.67;41.20;;;19.30;96.50;;;;;;5015878;28;20061;-52
2021/07/13 06:35:16;;;;;;;63.33;40.13;;;19.40;96.50;;;;;;5004522;28;20060;-53
2021/07/13 06:37:43;;;;;;;57.90;40.88;;;19.50;96.30;;;;;;5013513;28;20485;-54
2021/07/13 06:40:12;;;;;;;53.70;39.65;;;19.50;96.40;;;;;;5004616;28;20054;-52
2021/07/13 06:42:39;;;;;;;52.13;37.95;;;19.50;96.20;;;;;;4988803;28;20054;-53
2021/07/13 06:45:07;;;;;;;54.70;37.90;;;19.50;96.30;;;;;;5011961;28;20419;-55
2021/07/13 06:47:32;;;;;;;53.67;37.08;;;19.50;96.40;;;;;;5011851;28;20054;-50
2021/07/13 06:49:58;;;;;;;51.00;37.92;;;19.50;96.30;;;;;;5012035;28;20084;-53
2021/07/13 06:52:24;;;;;;;50.38;37.20;;;19.50;96.20;;;;;;5011316;28;20113;-53
2021/07/13 06:54:54;;;;;;;48.55;37.03;;;19.60;96.30;;;;;;5017946;28;20156;-52
2021/07/13 06:57:22;;;;;;;49.30;37.03;;;19.70;96.10;;;;;;5012199;28;20057;-51
2021/07/13 06:59:49;;;;;;;47.20;35.35;;;19.70;95.90;;;;;;5010798;28;20042;-53
2021/07/13 07:02:15;;;;;;;48.60;36.05;;;19.70;95.90;;;;;;5011536;28;20563;-52
2021/07/13 07:04:40;;;;;;;51.67;35.95;;;19.70;96.10;;;;;;5016837;28;20135;-52
2021/07/13 07:07:07;;;;;;;47.47;36.28;;;19.70;96.20;;;;;;5010266;28;20112;-53
2021/07/13 07:09:33;;;;;;;46.20;34.40;;;19.70;96.20;;;;;;5013972;28;20092;-52
2021/07/13 07:11:59;;;;;;;46.88;35.83;;;19.70;96.10;;;;;;5026953;28;20037;-53
2021/07/13 07:14:25;;;;;;;48.92;34.40;;;19.70;96.20;;;;;;5013977;28;20580;-53
2021/07/13 07:16:51;;;;;;;44.70;34.28;;;19.70;96.10;;;;;;5004904;28;20046;-55
2021/07/13 07:19:16;;;;;;;45.92;35.20;;;19.70;96.10;;;;;;5016736;28;20127;-56
2021/07/13 07:21:42;;;;;;;45.00;35.80;;;19.70;96.10;;;;;;5019303;28;20362;-53
2021/07/13 07:24:08;;;;;;;46.00;34.88;;;19.70;96.00;;;;;;5027966;28;20097;-53
2021/07/13 07:26:34;;;;;;;43.97;34.85;;;19.70;96.00;;;;;;5011828;28;20044;-52
2021/07/13 07:29:01;;;;;;;43.20;34.22;;;19.70;96.10;;;;;;5022977;28;20029;-53
2021/07/13 07:31:27;;;;;;;45.70;35.03;;;19.80;96.10;;;;;;4982935;28;20412;-53
2021/07/13 07:33:53;;;;;;;45.95;34.10;;;19.80;96.10;;;;;;5019632;28;20052;-51
2021/07/13 07:36:20;;;;;;;44.63;34.55;;;19.80;96.10;;;;;;5009742;28;20042;-50
2021/07/13 07:38:46;;;;;;;43.95;33.28;;;19.80;96.10;;;;;;5026403;28;20129;-52
2021/07/13 07:41:12;;;;;;;42.72;33.25;;;19.80;96.10;;;;;;5021781;28;20538;-52
2021/07/13 07:43:37;;;;;;;45.42;35.08;;;19.80;96.10;;;;;;5019227;28;20052;-52
2021/07/13 07:46:06;;;;;;;46.70;35.20;;;19.80;96.00;;;;;;5021895;28;20053;-52
2021/07/13 07:48:32;;;;;;;47.17;35.28;;;19.80;96.20;;;;;;5016776;28;20060;-53
2021/07/13 07:50:57;;;;;;;44.53;34.55;;;19.80;96.10;;;;;;5026480;28;20168;-50
2021/07/13 07:53:23;;;;;;;45.15;33.92;;;19.80;96.10;;;;;;5022209;28;20125;-51
2021/07/13 07:55:49;;;;;;;48.78;34.50;;;19.80;96.10;;;;;;5021053;28;20517;-52
2021/07/13 07:58:16;;;;;;;48.88;35.75;;;19.80;96.10;;;;;;5024253;28;20239;-50
2021/07/13 08:00:41;;;;;;;49.03;34.50;;;19.80;96.00;;;;;;4997068;28;20495;-54
2021/07/13 08:03:07;;;;;;;47.15;35.33;;;19.80;96.10;;;;;;5014877;28;20052;-53
2021/07/13 08:05:37;;;;;;;47.72;34.53;;;19.80;96.10;;;;;;5017683;28;20494;-52
2021/07/13 08:08:03;;;;;;;45.60;34.47;;;19.90;96.10;;;;;;5034415;28;20048;-53
2021/07/13 08:10:29;;;;;;;44.08;34.15;;;19.80;96.00;;;;;;5015584;28;20037;-53
2021/07/13 08:12:55;;;;;;;47.55;35.17;;;19.80;96.00;;;;;;5025530;28;20037;-53
2021/07/13 08:15:21;;;;;;;46.38;35.22;;;19.80;96.10;;;;;;5020361;28;20037;-51
2021/07/13 08:17:47;;;;;;;45.03;34.45;;;19.90;96.20;;;;;;5006835;28;20042;-54
2021/07/13 08:20:14;;;;;;;47.15;34.65;;;19.90;96.10;;;;;;5022260;28;20044;-51
2021/07/13 08:22:45;;;;;;;45.22;33.70;;;19.90;96.00;;;;;;5021708;28;20038;-56
2021/07/13 08:25:11;;;;;;;47.70;34.43;;;19.90;96.00;;;;;;5016155;28;20075;-56
2021/07/13 08:27:37;;;;;;;44.85;33.40;;;19.90;96.00;;;;;;5018699;28;20495;-56
2021/07/13 08:30:05;;;;;;;45.85;34.88;;;20.00;96.10;;;;;;5019953;28;20038;-54
2021/07/13 08:32:30;;;;;;;43.38;33.70;;;19.90;96.10;;;;;;5015535;28;20042;-53
2021/07/13 08:34:56;;;;;;;47.15;35.17;;;19.90;96.00;;;;;;5020989;28;20063;-49
2021/07/13 08:37:22;;;;;;;47.90;35.38;;;20.00;95.90;;;;;;5021064;28;20045;-49
2021/07/13 08:39:49;;;;;;;44.40;35.15;;;19.90;96.10;;;;;;5000477;28;20783;-52
2021/07/13 08:42:15;;;;;;;41.47;32.90;;;20.00;96.10;;;;;;5023084;28;20123;-55
2021/07/13 08:44:42;;;;;;;39.10;30.30;;;20.00;96.30;;;;;;5019982;28;20451;-54
2021/07/13 08:47:14;;;;;;;39.75;30.13;;;20.00;95.80;;;;;;4981124;28;20042;-49
2021/07/13 08:49:39;;;;;;;34.78;29.67;;;20.10;96.10;;;;;;5027590;28;20037;-53
2021/07/13 08:52:05;;;;;;;35.10;29.38;;;20.10;95.90;;;;;;5020625;28;20561;-53
2021/07/13 08:54:34;;;;;;;36.38;29.02;;;20.10;95.90;;;;;;5020388;28;20108;-55
2021/07/13 08:57:01;;;;;;;38.42;30.95;;;20.00;95.80;;;;;;4998218;28;20402;-52
2021/07/13 08:59:26;;;;;;;39.33;32.42;;;20.00;95.90;;;;;;5018920;28;20048;-52
2021/07/13 09:01:54;;;;;;;42.97;31.50;;;20.00;96.10;;;;;;5021175;28;20483;-51
2021/07/13 09:04:19;;;;;;;38.45;32.33;;;20.10;96.10;;;;;;5020758;28;20087;-51
2021/07/13 09:06:56;;;;;;;40.65;33.22;;;20.10;96.20;;;;;;5014461;28;20050;-55
2021/07/13 09:09:29;;;;;;;39.08;30.98;;;20.10;96.20;;;;;;5014869;28;20096;-54
2021/07/13 09:12:11;;;;;;;37.90;33.10;;;20.10;96.20;;;;;;5000973;28;20080;-51
2021/07/13 09:14:52;;;;;;;38.20;31.80;;;20.10;96.10;;;;;;5010184;28;20288;-54
2021/07/13 09:17:39;;;;;;;42.55;34.40;;;20.20;95.90;;;;;;4999477;28;20045;-54
2021/07/13 09:20:10;;;;;;;37.30;31.23;;;20.20;96.00;;;;;;5001713;28;20549;-54
2021/07/13 09:22:41;;;;;;;39.25;31.80;;;20.20;96.10;;;;;;4996843;28;20084;-54
2021/07/13 09:25:36;;;;;;;38.28;32.35;;;20.10;96.10;;;;;;4992902;28;20041;-53
2021/07/13 09:28:06;;;;;;;40.78;31.63;;;20.10;96.30;;;;;;5012198;28;20060;-53
2021/07/13 09:30:31;;;;;;;38.00;31.65;;;20.10;96.30;;;;;;5005705;28;20099;-53
2021/07/13 09:33:23;;;;;;;38.35;32.30;;;20.20;96.20;;;;;;5005252;28;20042;-54
2021/07/13 09:36:13;;;;;;;38.22;31.38;;;20.10;96.30;;;;;;5001509;28;20465;-52
2021/07/13 09:38:53;;;;;;;33.13;29.52;;;20.20;96.40;;;;;;5008213;28;20467;-53
2021/07/13 09:41:33;;;;;;;35.03;29.52;;;20.20;96.30;;;;;;5006170;28;20042;-54
2021/07/13 09:44:02;;;;;;;33.25;28.75;;;20.20;96.30;;;;;;5007379;28;20093;-52
2021/07/13 09:46:32;;;;;;;32.88;29.15;;;20.20;96.20;;;;;;5015109;28;20314;-51
2021/07/13 09:49:21;;;;;;;36.00;29.85;;;20.10;96.20;;;;;;5004493;28;20132;-51
2021/07/13 09:52:02;;;;;;;36.67;30.15;;;20.20;96.30;;;;;;5011898;28;20550;-54
2021/07/13 09:54:43;;;;;;;34.97;29.98;;;20.30;96.30;;;;;;5008230;28;21280;-52
2021/07/13 09:57:15;;;;;;;35.80;30.10;;;20.30;96.30;;;;;;5006876;28;20061;-52
2021/07/13 09:59:50;;;;;;;35.90;31.00;;;20.30;96.30;;;;;;5007869;28;20049;-54
2021/07/13 10:02:19;;;;;;;35.80;30.70;;;20.20;96.40;;;;;;4990374;28;20040;-54
2021/07/13 10:04:49;;;;;;;34.30;29.42;;;20.20;96.60;;;;;;5006733;28;20067;-53
2021/07/13 10:07:20;;;;;;;33.97;29.05;;;20.20;96.50;;;;;;5006455;28;20120;-50
2021/07/13 10:09:51;;;;;;;36.78;31.25;;;20.30;96.30;;;;;;4991854;28;21415;-53
2021/07/13 10:12:24;;;;;;;35.53;30.63;;;20.30;96.50;;;;;;5000515;28;20462;-53
2021/07/13 10:14:54;;;;;;;;;;;20.30;96.60;;;;;;5009782;28;20717;-54
2021/07/13 10:17:23;;;;;;;39.10;32.45;;;20.30;96.70;;;;;;5014242;28;20358;-52
2021/07/13 10:20:07;;;;;;;35.70;29.88;;;20.40;96.50;;;;;;5001462;28;20034;-53
2021/07/13 10:22:35;;;;;;;36.10;30.80;;;20.40;96.70;;;;;;5005471;28;20037;-54
2021/07/13 10:25:02;;;;;;;34.72;30.15;;;20.40;96.50;;;;;;5015493;28;20069;-54
2021/07/13 10:27:36;;;;;;;34.42;29.83;;;20.40;96.50;;;;;;4990524;28;20045;-54
2021/07/13 10:30:06;;;;;;;34.05;29.35;;;20.50;96.40;;;;;;5005497;28;20128;-53
2021/07/13 10:32:35;;;;;;;33.70;29.77;;;20.40;96.40;;;;;;5015993;28;20877;-54
2021/07/13 10:35:15;;;;;;;34.50;30.35;;;20.40;96.40;;;;;;5007703;28;20422;-53
2021/07/13 10:37:46;;;;;;;33.85;29.48;;;20.40;96.40;;;;;;5007048;28;20115;-53
2021/07/13 10:40:14;;;;;;;32.05;28.63;;;20.40;96.40;;;;;;5008070;28;20386;-53
2021/07/13 10:42:40;;;;;;;32.22;28.73;;;20.50;96.40;;;;;;5010321;28;20041;-55
2021/07/13 10:45:19;;;;;;;31.83;27.95;;;20.50;96.30;;;;;;4993278;28;20045;-52
2021/07/13 10:48:00;;;;;;;34.10;29.45;;;20.50;96.20;;;;;;4999621;28;20041;-53
2021/07/13 10:50:25;;;;;;;32.75;29.33;;;20.50;96.40;;;;;;5020340;28;20387;-54
2021/07/13 10:52:58;;;;;;;33.22;28.50;;;20.50;96.40;;;;;;5013634;28;20742;-52
2021/07/13 10:55:30;;;;;;;31.88;28.42;;;20.50;96.20;;;;;;5010471;28;20138;-55
2021/07/13 10:58:14;;;;;;;33.85;29.23;;;20.50;96.10;;;;;;5016233;28;20037;-53
2021/07/13 11:03:27;;;;;;;34.50;29.17;;;20.60;96.40;;;;;;5014007;28;20172;-55
2021/07/13 11:06:03;;;;;;;34.45;29.13;;;20.60;96.30;;;;;;5017394;28;20041;-54
2021/07/13 11:08:41;;;;;;;35.90;30.13;;;20.70;96.30;;;;;;5007761;28;20053;-54
2021/07/13 11:11:09;;;;;;;32.95;29.02;;;20.70;96.00;;;;;;5011789;28;20133;-54
2021/07/13 11:13:39;;;;;;;;;;;20.70;96.10;;;;;;5016264;28;20045;-52
2021/07/13 11:16:04;;;;;;;33.28;29.60;;;20.60;96.10;;;;;;5007587;28;19925;-53
2021/07/13 11:18:32;;;;;;;35.33;30.42;;;20.70;96.20;;;;;;5017165;28;20042;-55
2021/07/13 11:21:18;;;;;;;33.25;29.75;;;20.70;96.30;;;;;;5005265;28;20034;-54
2021/07/13 11:23:50;;;;;;;33.08;28.95;;;20.70;95.60;;;;;;5006086;28;20586;-53
2021/07/13 11:26:17;;;;;;;32.83;29.00;;;20.70;95.90;;;;;;5015102;28;20041;-53
2021/07/13 11:28:51;;;;;;;33.03;29.40;;;20.70;96.00;;;;;;5009384;28;20042;-53
2021/07/13 11:31:37;;;;;;;35.58;30.05;;;20.70;96.00;;;;;;4990427;28;20767;-54
2021/07/13 11:34:14;;;;;;;34.38;30.42;;;20.70;96.20;;;;;;5004377;28;20054;-54
2021/07/13 11:36:46;;;;;;;35.13;30.88;;;20.70;96.10;;;;;;5026308;28;20045;-52
2021/07/13 11:39:21;;;;;;;36.63;32.72;;;20.70;96.30;;;;;;4992617;28;20054;-53
2021/07/13 11:41:47;;;;;;;34.55;29.80;;;20.70;96.40;;;;;;5011213;28;20421;-52
2021/07/13 11:44:13;;;;;;;32.30;28.73;;;20.70;96.30;;;;;;5004987;28;20077;-54
2021/07/13 11:46:41;;;;;;;34.47;30.85;;;20.70;96.20;;;;;;5006344;28;20065;-54
2021/07/13 11:49:15;;;;;;;35.03;30.20;;;20.60;96.20;;;;;;5005583;28;20457;-52
2021/07/13 11:51:50;;;;;;;34.35;30.30;;;20.60;96.20;;;;;;5007114;28;20534;-54
2021/07/13 11:54:18;;;;;;;36.30;32.17;;;20.60;96.20;;;;;;5010690;28;20467;-54
2021/07/13 11:56:50;;;;;;;35.65;31.85;;;20.60;96.20;;;;;;5006159;28;20034;-55
2021/07/13 11:59:23;;;;;;;;;;;20.70;96.40;;;;;;5008725;28;20066;-54
2021/07/13 12:01:57;;;;;;;36.95;32.38;;;20.70;96.60;;;;;;5008941;28;19925;-54
2021/07/13 12:04:25;;;;;;;37.13;33.03;;;20.60;96.50;;;;;;5003574;28;20050;-55
2021/07/13 12:07:01;;;;;;;37.38;33.30;;;20.60;96.50;;;;;;5004181;28;20113;-53
2021/07/13 12:09:30;;;;;;;39.05;34.10;;;20.70;96.60;;;;;;5010799;28;20515;-52
2021/07/13 12:12:04;;;;;;;37.28;33.20;;;20.70;96.70;;;;;;5005172;28;20061;-52
2021/07/13 12:14:30;;;;;;;38.85;33.47;;;20.70;96.70;;;;;;5005707;28;20049;-54
2021/07/13 12:17:00;;;;;;;38.63;33.97;;;20.70;96.70;;;;;;4981017;28;20058;-53
2021/07/13 12:19:29;;;;;;;40.90;34.03;;;20.70;96.70;;;;;;5004289;28;20064;-51
2021/07/13 12:22:06;;;;;;;42.92;35.83;;;20.70;96.80;;;;;;5006626;28;20046;-54
2021/07/13 12:24:37;;;;;;;41.70;35.70;;;20.70;96.90;;;;;;5003662;28;20243;-54
2021/07/13 12:27:10;;;;;;;37.53;33.42;;;20.70;96.90;;;;;;4998327;28;20038;-53
2021/07/13 12:29:53;;;;;;;40.92;35.60;;;20.70;96.80;;;;;;5003185;28;20144;-54
2021/07/13 12:32:30;;;;;;;40.15;35.10;;;20.70;96.90;;;;;;5003538;28;20499;-51
2021/07/13 12:34:57;;;;;;;39.90;34.53;;;20.70;96.90;;;;;;5009916;28;20042;-51
2021/07/13 12:37:28;;;;;;;42.63;35.20;;;20.80;96.90;;;;;;5007737;28;20042;-55
2021/07/13 12:40:00;;;;;;;41.90;35.30;;;20.70;97.00;;;;;;5007970;28;20709;-54